Time;durP1;ratioP1;P1;durP2;ratioP2;P2;SDS_P1;SDS_P2;PMS_P1;PMS_P2;Temp;Humidity;BMP_temperature;BMP_pressure;BME280_temperature;BME280_humidity;BME280_pressure;Samples;Min_cycle;Max_cycle;Signal;HPM_P1;HPM_P2
2023/01/23 00:00:54;;;;;;;;;;;0.40;99.90;;;;;;5002890;28;19924;-76
2023/01/23 00:03:20;;;;;;;;;;;0.40;99.90;;;;;;5006415;28;20630;-77
2023/01/23 00:05:54;;;;;;;;;;;0.30;99.90;;;;;;5008677;28;20285;-76
2023/01/23 00:08:20;;;;;;;;;;;0.40;99.90;;;;;;5007554;28;19913;-77
2023/01/23 00:10:46;;;;;;;;;;;0.30;99.90;;;;;;5010884;28;20296;-76
2023/01/23 00:13:11;;;;;;;;;;;0.40;99.90;;;;;;5009439;28;19968;-76
2023/01/23 00:15:38;;;;;;;;;;;0.30;99.90;;;;;;5009141;28;19909;-77
2023/01/23 00:18:03;;;;;;;;;;;0.40;99.90;;;;;;5004363;28;19920;-76
2023/01/23 00:20:29;;;;;;;;;;;0.40;99.90;;;;;;5015531;28;20300;-77
2023/01/23 00:22:55;;;;;;;;;;;0.40;99.90;;;;;;5009385;28;19920;-76
2023/01/23 00:25:20;;;;;;;;;;;0.40;99.90;;;;;;5009391;28;19971;-76
2023/01/23 00:27:46;;;;;;;;;;;0.40;99.90;;;;;;5007779;28;19913;-76
2023/01/23 00:30:12;;;;;;;;;;;0.40;99.90;;;;;;5015167;28;19913;-76
2023/01/23 00:32:38;;;;;;;;;;;0.40;99.90;;;;;;5014998;28;19921;-76
2023/01/23 00:35:03;;;;;;;;;;;0.40;99.90;;;;;;5009847;28;19925;-76
2023/01/23 00:37:29;;;;;;;;;;;0.40;99.90;;;;;;5012863;28;20036;-77
2023/01/23 00:39:55;;;;;;;;;;;0.40;99.90;;;;;;5015580;28;20655;-76
2023/01/23 00:42:20;;;;;;;;;;;0.40;99.90;;;;;;5004433;28;20475;-76
2023/01/23 00:44:46;;;;;;;;;;;0.30;99.90;;;;;;5015895;28;19908;-76
2023/01/23 00:47:11;;;;;;;;;;;0.30;99.90;;;;;;5004493;28;19909;-76
2023/01/23 00:49:37;;;;;;;;;;;0.30;99.90;;;;;;5014461;28;19921;-77
2023/01/23 00:52:03;;;;;;;;;;;0.40;99.90;;;;;;5015324;28;19917;-77
2023/01/23 00:54:28;;;;;;;;;;;0.40;99.90;;;;;;5017898;28;19920;-77
2023/01/23 00:56:54;;;;;;;;;;;0.30;99.90;;;;;;5011789;28;19971;-77
2023/01/23 00:59:19;;;;;;;;;;;0.40;99.90;;;;;;5014721;28;19925;-77
2023/01/23 01:01:45;;;;;;;;;;;0.40;99.90;;;;;;5019398;28;19916;-77
2023/01/23 01:04:11;;;;;;;;;;;0.40;99.90;;;;;;5004819;28;19909;-77
2023/01/23 01:06:36;;;;;;;;;;;0.40;99.90;;;;;;5020453;28;19967;-77
2023/01/23 01:09:02;;;;;;;;;;;0.40;99.90;;;;;;5018419;28;20023;-77
2023/01/23 01:11:27;;;;;;;;;;;0.40;99.90;;;;;;5012668;28;20404;-77
2023/01/23 01:13:53;;;;;;;;;;;0.30;99.90;;;;;;5008433;28;19913;-77
2023/01/23 01:16:19;;;;;;;;;;;0.30;99.90;;;;;;4992764;28;20740;-77
2023/01/23 01:18:45;;;;;;;;;;;0.30;99.90;;;;;;5011900;28;20023;-77
2023/01/23 01:21:12;;;;;;;;;;;0.40;99.90;;;;;;5015436;28;19913;-77
2023/01/23 01:23:38;;;;;;;;;;;0.30;99.90;;;;;;5021129;28;19955;-77
2023/01/23 01:26:04;;;;;;;;;;;0.40;99.90;;;;;;5016633;28;19917;-77
2023/01/23 01:28:31;;;;;;;;;;;0.40;99.90;;;;;;5013240;28;19955;-77
2023/01/23 01:30:58;;;;;;;;;;;0.20;99.90;;;;;;5018998;28;19916;-77
2023/01/23 01:33:24;;;;;;;;;;;0.30;99.90;;;;;;5020223;28;19976;-77
2023/01/23 01:35:50;;;;;;;;;;;0.30;99.90;;;;;;5014052;28;19916;-76
2023/01/23 01:38:15;;;;;;;;;;;0.30;99.90;;;;;;5011474;28;19909;-77
2023/01/23 01:40:41;;;;;;;;;;;0.30;99.90;;;;;;5016083;28;19909;-77
2023/01/23 01:43:16;;;;;;;;;;;0.40;99.90;;;;;;5020537;28;19913;-77
2023/01/23 01:46:00;;;;;;;;;;;0.40;99.90;;;;;;5005518;28;19956;-77
2023/01/23 01:48:29;;;;;;;;;;;0.40;99.90;;;;;;5011004;28;19983;-77
2023/01/23 01:50:55;;;;;;;;;;;0.40;99.90;;;;;;5013842;28;19995;-76
2023/01/23 01:53:22;;;;;;;;;;;0.50;99.90;;;;;;5016709;28;20601;-76
2023/01/23 01:55:48;;;;;;;;;;;0.50;99.90;;;;;;5006621;28;19914;-76
2023/01/23 01:58:14;;;;;;;;;;;0.40;99.90;;;;;;5007738;28;19963;-76
2023/01/23 02:00:39;;;;;;;;;;;0.50;99.90;;;;;;5016760;28;20339;-76
2023/01/23 02:03:05;;;;;;;;;;;0.50;99.90;;;;;;5007912;28;19955;-77
2023/01/23 02:05:38;;;;;;;;;;;0.40;99.90;;;;;;5010561;28;19913;-76
2023/01/23 02:08:12;;;;;;;;;;;0.40;99.70;;;;;;5013402;28;19992;-76
2023/01/23 02:10:39;;;;;;;;;;;0.50;99.90;;;;;;5017476;28;19980;-76
2023/01/23 02:13:20;;;;;;;;;;;0.50;99.90;;;;;;5011220;28;19975;-77
2023/01/23 02:15:46;;;;;;;;;;;0.50;99.40;;;;;;5010903;28;19916;-77
2023/01/23 02:18:11;;;;;;;;;;;0.50;99.20;;;;;;5019083;28;19917;-77
2023/01/23 02:20:37;;;;;;;;;;;0.50;98.50;;;;;;5012277;28;19916;-76
2023/01/23 02:23:11;;;;;;;;;;;0.50;97.90;;;;;;5009528;28;20755;-76
2023/01/23 02:25:47;;;;;;;;;;;0.50;97.90;;;;;;5009568;28;20432;-76
2023/01/23 02:28:13;;;;;;;;;;;0.60;97.80;;;;;;5011398;28;19909;-76
2023/01/23 02:30:41;;;;;;;;;;;0.60;97.50;;;;;;5024365;28;19909;-76
2023/01/23 02:33:08;;;;;;;;;;;0.50;96.30;;;;;;5021106;28;19964;-77
2023/01/23 02:35:34;;;;;;;;;;;0.50;96.50;;;;;;5012079;28;19992;-77
2023/01/23 02:38:02;;;;;;;;;;;0.60;96.30;;;;;;5010425;28;19937;-77
2023/01/23 02:40:31;;;;;;;;;;;0.60;96.30;;;;;;5021717;28;19909;-78
2023/01/23 02:42:57;;;;;;;;;;;0.60;95.90;;;;;;5011295;28;19920;-77
2023/01/23 02:45:23;;;;;;;;;;;0.70;95.60;;;;;;5016147;28;19915;-77
2023/01/23 02:47:49;;;;;;;;;;;0.60;95.30;;;;;;4990404;28;19909;-77
2023/01/23 02:50:15;;;;;;;;;;;0.60;95.10;;;;;;5007342;28;19909;-77
2023/01/23 02:52:40;;;;;;;;;;;0.70;95.10;;;;;;5019405;28;20030;-78
2023/01/23 02:55:06;;;;;;;;;;;0.70;95.10;;;;;;5014301;28;19921;-78
2023/01/23 02:57:32;;;;;;;;;;;0.70;94.90;;;;;;5018773;28;20262;-78
2023/01/23 03:00:16;;;;;;;;;;;0.60;95.30;;;;;;5015734;28;19921;-78
2023/01/23 03:02:49;;;;;;;;;;;0.60;95.10;;;;;;5015162;28;19917;-78
2023/01/23 03:05:15;;;;;;;;;;;0.60;94.80;;;;;;5020833;28;20047;-78
2023/01/23 03:07:41;;;;;;;;;;;0.60;95.00;;;;;;5016547;28;19924;-77
2023/01/23 03:10:08;;;;;;;;;;;0.70;94.80;;;;;;5021336;28;19913;-78
2023/01/23 03:12:34;;;;;;;;;;;0.70;94.90;;;;;;5020998;28;20528;-78
2023/01/23 03:15:00;;;;;;;;;;;0.60;94.90;;;;;;5014241;28;19910;-77
2023/01/23 03:17:26;;;;;;;;;;;0.60;94.40;;;;;;5015190;28;20740;-77
2023/01/23 03:19:51;;;;;;;;;;;0.60;94.30;;;;;;5013275;28;20008;-77
2023/01/23 03:22:17;;;;;;;;;;;0.60;94.70;;;;;;5014579;28;20397;-77
2023/01/23 03:24:42;;;;;;;;;;;0.70;94.70;;;;;;5019887;28;19962;-77
2023/01/23 03:27:09;;;;;;;;;;;0.70;94.80;;;;;;5018610;28;20150;-77
2023/01/23 03:32:19;;;;;;;;;;;0.70;95.10;;;;;;5014650;28;20007;-77
2023/01/23 03:34:45;;;;;;;;;;;0.70;96.40;;;;;;5022224;28;19998;-77
2023/01/23 03:37:11;;;;;;;;;;;0.60;97.00;;;;;;5003933;28;19956;-77
2023/01/23 03:42:21;;;;;;;;;;;0.70;97.10;;;;;;5005268;28;19955;-77
2023/01/23 03:44:47;;;;;;;;;;;0.60;97.30;;;;;;5013748;28;19917;-77
2023/01/23 03:47:13;;;;;;;;;;;0.60;97.90;;;;;;5012934;28;20387;-77
2023/01/23 03:49:38;;;;;;;;;;;0.60;98.10;;;;;;5018430;28;19913;-78
2023/01/23 03:52:04;;;;;;;;;;;0.60;98.10;;;;;;5009987;28;19950;-78
2023/01/23 03:54:30;;;;;;;;;;;0.70;98.20;;;;;;5017154;28;19914;-77
2023/01/23 03:56:56;;;;;;;;;;;0.60;98.70;;;;;;5007983;28;19913;-77
2023/01/23 03:59:21;;;;;;;;;;;0.60;98.80;;;;;;5011417;28;20718;-77
2023/01/23 04:01:47;;;;;;;;;;;0.50;97.70;;;;;;5015539;28;19914;-77
2023/01/23 04:04:13;;;;;;;;;;;0.60;97.90;;;;;;5010867;28;19910;-76
2023/01/23 04:06:39;;;;;;;;;;;0.70;97.60;;;;;;5015905;28;20420;-77
2023/01/23 04:09:04;;;;;;;;;;;0.60;96.50;;;;;;5013848;28;20024;-77
2023/01/23 04:11:30;;;;;;;;;;;0.50;96.50;;;;;;5004922;28;19922;-77
2023/01/23 04:13:55;;;;;;;;;;;0.50;96.40;;;;;;5009952;28;19964;-77
2023/01/23 04:16:22;;;;;;;;;;;0.60;96.30;;;;;;5016019;28;19909;-77
2023/01/23 04:18:50;;;;;;;;;;;0.60;96.00;;;;;;5003117;28;19913;-77
2023/01/23 04:21:16;;;;;;;;;;;0.60;95.80;;;;;;5008161;28;19987;-77
2023/01/23 04:23:42;;;;;;;;;;;0.60;96.10;;;;;;5011208;28;19913;-77
2023/01/23 04:26:07;;;;;;;;;;;0.60;95.90;;;;;;5010196;28;19932;-77
2023/01/23 04:28:33;;;;;;;;;;;0.60;95.70;;;;;;5018390;28;19948;-77
2023/01/23 04:30:59;;;;;;;;;;;0.60;95.80;;;;;;5010374;28;19956;-77
2023/01/23 04:33:24;;;;;;;;;;;0.70;96.10;;;;;;5008112;28;19921;-78
2023/01/23 04:35:53;;;;;;;;;;;0.70;96.00;;;;;;5017993;28;19924;-77
2023/01/23 04:38:19;;;;;;;;;;;0.60;96.00;;;;;;5018667;28;19916;-77
2023/01/23 04:40:45;;;;;;;;;;;0.60;97.00;;;;;;5018716;28;19913;-77
2023/01/23 04:43:11;;;;;;;;;;;0.60;98.20;;;;;;5017604;28;19913;-77
2023/01/23 04:45:37;;;;;;;;;;;0.50;97.10;;;;;;5007469;28;19932;-77
2023/01/23 04:48:02;;;;;;;;;;;0.60;98.00;;;;;;5014896;28;19917;-76
2023/01/23 04:50:28;;;;;;;;;;;0.60;98.50;;;;;;5013324;28;20075;-76
2023/01/23 04:52:53;;;;;;;;;;;0.60;98.20;;;;;;5007484;28;19921;-77
2023/01/23 04:55:19;;;;;;;;;;;0.70;97.70;;;;;;5007917;28;19967;-77
2023/01/23 04:57:45;;;;;;;;;;;0.60;97.70;;;;;;5014467;28;20448;-77
2023/01/23 05:00:11;;;;;;;;;;;0.60;97.40;;;;;;5020092;28;20026;-77
2023/01/23 05:02:37;;;;;;;;;;;0.60;97.00;;;;;;5017316;28;19915;-77
2023/01/23 05:05:03;;;;;;;;;;;0.60;96.80;;;;;;5015346;28;19909;-76
2023/01/23 05:07:28;;;;;;;;;;;0.60;98.00;;;;;;5010917;28;19915;-76
2023/01/23 05:09:54;;;;;;;;;;;0.60;97.90;;;;;;5020451;28;19909;-77
2023/01/23 05:12:19;;;;;;;;;;;0.60;98.00;;;;;;5017073;28;19971;-77
2023/01/23 05:14:45;;;;;;;;;;;0.50;96.90;;;;;;5020495;28;19992;-76
2023/01/23 05:17:10;;;;;;;;;;;0.50;97.10;;;;;;5010498;28;19917;-76
2023/01/23 05:19:36;;;;;;;;;;;0.60;97.00;;;;;;5012106;28;19935;-77
2023/01/23 05:22:01;;;;;;;;;;;0.60;97.10;;;;;;5007838;28;19909;-77
2023/01/23 05:24:27;;;;;;;;;;;0.70;96.70;;;;;;5017144;28;19909;-77
2023/01/23 05:26:53;;;;;;;;;;;0.70;96.60;;;;;;5020830;28;19909;-76
2023/01/23 05:29:18;;;;;;;;;;;0.70;96.50;;;;;;5016940;28;20377;-76
2023/01/23 05:31:44;;;;;;;;;;;0.70;96.20;;;;;;5014659;28;19962;-76
2023/01/23 05:34:09;;;;;;;;;;;0.70;96.60;;;;;;5005635;28;19905;-76
2023/01/23 05:36:35;;;;;;;;;;;0.60;97.00;;;;;;5006559;28;19992;-76
2023/01/23 05:39:00;;;;;;;;;;;0.60;96.60;;;;;;5006489;28;19913;-76
2023/01/23 05:41:26;;;;;;;;;;;0.70;96.80;;;;;;5006826;28;19909;-78
2023/01/23 05:43:51;;;;;;;;;;;0.70;96.60;;;;;;5010537;28;19940;-77
2023/01/23 05:46:17;;;;;;;;;;;0.60;96.50;;;;;;5015165;28;19910;-76
2023/01/23 05:48:43;;;;;;;;;;;0.60;96.40;;;;;;5007526;28;19959;-76
2023/01/23 05:51:08;;;;;;;;;;;0.60;96.80;;;;;;5013497;28;19920;-76
2023/01/23 05:53:34;;;;;;;;;;;0.60;96.70;;;;;;5019015;28;19975;-76
2023/01/23 05:56:03;;;;;;;;;;;0.70;96.40;;;;;;5022644;28;19909;-76
2023/01/23 05:58:29;;;;;;;;;;;0.60;96.60;;;;;;5004951;28;19912;-76
2023/01/23 06:00:55;;;;;;;;;;;0.60;96.80;;;;;;5017835;28;19940;-77
2023/01/23 06:03:20;;;;;;;;;;;0.70;96.60;;;;;;5017232;28;20721;-76
2023/01/23 06:05:46;;;;;;;;;;;0.70;96.60;;;;;;5011782;28;19909;-77
2023/01/23 06:08:11;;;;;;;;;;;0.60;96.10;;;;;;5022014;28;19920;-76
2023/01/23 06:10:37;;;;;;;;;;;0.60;96.70;;;;;;5024321;28;20032;-77
2023/01/23 06:13:03;;;;;;;;;;;0.60;96.60;;;;;;5024593;28;19917;-77
2023/01/23 06:15:28;;;;;;;;;;;0.60;96.40;;;;;;5010764;28;19915;-77
2023/01/23 06:17:54;;;;;;;;;;;0.70;96.60;;;;;;5021097;28;19912;-76
2023/01/23 06:20:19;;;;;;;;;;;0.70;96.90;;;;;;5016147;28;19920;-76
2023/01/23 06:22:45;;;;;;;;;;;0.80;96.60;;;;;;5005514;28;19988;-76
2023/01/23 06:25:11;;;;;;;;;;;0.70;96.50;;;;;;5015961;28;19963;-78
2023/01/23 06:27:36;;;;;;;;;;;0.70;96.70;;;;;;5010606;28;19913;-78
2023/01/23 06:30:02;;;;;;;;;;;0.80;96.80;;;;;;5017034;28;19979;-79
2023/01/23 06:32:28;;;;;;;;;;;0.80;96.70;;;;;;5011141;28;19921;-79
2023/01/23 06:34:53;;;;;;;;;;;0.70;96.50;;;;;;5018440;28;19912;-78
2023/01/23 06:37:19;;;;;;;;;;;0.70;96.60;;;;;;5004245;28;19967;-78
2023/01/23 06:39:44;;;;;;;;;;;0.70;96.20;;;;;;5015118;28;19912;-78
2023/01/23 06:42:10;;;;;;;;;;;0.70;96.40;;;;;;5016996;28;19956;-78
2023/01/23 06:44:36;;;;;;;;;;;0.70;96.10;;;;;;5016500;28;19913;-79
2023/01/23 06:47:02;;;;;;;;;;;0.70;96.10;;;;;;5019441;28;20000;-78
2023/01/23 06:49:27;;;;;;;;;;;0.70;96.00;;;;;;5018449;28;20094;-79
2023/01/23 06:51:53;;;;;;;;;;;0.60;96.00;;;;;;5018101;28;20614;-77
2023/01/23 06:54:19;;;;;;;;;;;0.60;95.90;;;;;;5018285;28;19912;-77
2023/01/23 06:56:44;;;;;;;;;;;0.60;96.10;;;;;;5021415;28;19947;-77
2023/01/23 06:59:10;;;;;;;;;;;0.60;96.00;;;;;;5023112;28;19928;-77
2023/01/23 07:01:35;;;;;;;;;;;0.60;95.80;;;;;;5023775;28;20292;-77
2023/01/23 07:04:01;;;;;;;;;;;0.60;96.20;;;;;;5023915;28;20056;-76
2023/01/23 07:06:28;;;;;;;;;;;0.60;95.80;;;;;;5005409;28;19909;-77
2023/01/23 07:08:54;;;;;;;;;;;0.70;95.40;;;;;;5023561;28;19918;-77
2023/01/23 07:11:20;;;;;;;;;;;0.70;95.30;;;;;;5023645;28;19908;-77
2023/01/23 07:13:45;;;;;;;;;;;0.70;95.60;;;;;;5022854;28;19909;-77
2023/01/23 07:16:11;;;;;;;;;;;0.70;95.60;;;;;;5023279;28;19912;-77
2023/01/23 07:18:36;;;;;;;;;;;0.70;95.20;;;;;;5014953;28;19955;-77
2023/01/23 07:21:05;;;;;;;;;;;0.60;95.50;;;;;;5011909;28;19923;-76
2023/01/23 07:23:31;;;;;;;;;;;0.60;95.50;;;;;;5012391;28;19913;-78
2023/01/23 07:25:58;;;;;;;;;;;0.60;95.10;;;;;;5022966;28;20012;-77
2023/01/23 07:28:24;;;;;;;;;;;0.70;95.40;;;;;;5014078;28;20736;-78
2023/01/23 07:30:49;;;;;;;;;;;0.70;95.30;;;;;;5022436;28;19916;-78
2023/01/23 07:33:15;;;;;;;;;;;0.70;95.60;;;;;;5008337;28;19925;-77
2023/01/23 07:35:40;;;;;;;;;;;0.80;95.80;;;;;;5011341;28;19913;-77
2023/01/23 07:38:06;;;;;;;;;;;0.80;95.60;;;;;;5008852;28;19909;-77
2023/01/23 07:40:31;;;;;;;;;;;0.70;95.50;;;;;;5004906;28;20791;-77
2023/01/23 07:42:57;;;;;;;;;;;0.70;95.50;;;;;;5016549;28;19948;-77
2023/01/23 07:45:23;;;;;;;;;;;0.80;95.70;;;;;;5005820;28;19939;-77
2023/01/23 07:47:48;;;;;;;;;;;0.80;95.50;;;;;;4996580;28;19909;-77
2023/01/23 07:50:14;;;;;;;;;;;0.70;96.10;;;;;;5004101;28;20557;-77
2023/01/23 07:52:39;;;;;;;;;;;0.70;95.80;;;;;;5015090;28;20042;-77
2023/01/23 07:55:05;;;;;;;;;;;0.80;95.70;;;;;;5018914;28;20439;-77
2023/01/23 07:57:32;;;;;;;;;;;0.80;95.20;;;;;;5011297;28;19921;-77
2023/01/23 07:59:58;;;;;;;;;;;0.90;95.40;;;;;;5010989;28;19944;-77
2023/01/23 08:02:24;;;;;;;;;;;0.80;95.70;;;;;;5018122;28;20004;-76
2023/01/23 08:04:49;;;;;;;;;;;0.80;95.70;;;;;;5013829;28;19958;-77
2023/01/23 08:07:15;;;;;;;;;;;0.80;95.70;;;;;;5014924;28;19928;-77
2023/01/23 08:09:40;;;;;;;;;;;0.80;95.40;;;;;;5017356;28;19952;-77
2023/01/23 08:12:06;;;;;;;;;;;0.80;95.60;;;;;;5015184;28;20277;-77
2023/01/23 08:14:31;;;;;;;;;;;0.90;95.60;;;;;;4999021;28;20047;-77
2023/01/23 08:16:57;;;;;;;;;;;0.90;95.60;;;;;;5009828;28;19967;-77
2023/01/23 08:19:26;;;;;;;;;;;0.90;95.50;;;;;;5009256;28;19909;-78
2023/01/23 08:21:52;;;;;;;;;;;0.90;95.60;;;;;;5012477;28;20443;-77
2023/01/23 08:24:17;;;;;;;;;;;0.80;95.20;;;;;;5017903;28;19916;-77
2023/01/23 08:26:43;;;;;;;;;;;0.80;95.50;;;;;;5009945;28;19909;-78
2023/01/23 08:29:09;;;;;;;;;;;0.80;95.70;;;;;;5016298;28;19924;-77
2023/01/23 08:31:35;;;;;;;;;;;0.90;95.40;;;;;;5023496;28;20541;-77
2023/01/23 08:34:01;;;;;;;;;;;1.00;95.60;;;;;;5025604;28;19948;-76
2023/01/23 08:36:26;;;;;;;;;;;0.90;95.50;;;;;;5012516;28;20440;-77
2023/01/23 08:38:52;;;;;;;;;;;0.90;95.60;;;;;;5006837;28;19909;-78
2023/01/23 08:41:18;;;;;;;;;;;0.90;95.60;;;;;;5019934;28;19909;-77
2023/01/23 08:43:43;;;;;;;;;;;0.90;95.50;;;;;;5018643;28;20606;-77
2023/01/23 08:46:09;;;;;;;;;;;0.90;95.50;;;;;;5019301;28;20375;-77
2023/01/23 08:48:34;;;;;;;;;;;1.00;95.90;;;;;;5020109;28;20379;-77
2023/01/23 08:51:04;;;;;;;;;;;1.10;95.40;;;;;;5007367;28;19921;-76
2023/01/23 08:53:30;;;;;;;;;;;1.00;95.40;;;;;;4992228;28;20351;-77
2023/01/23 08:56:03;;;;;;;;;;;1.20;95.70;;;;;;5009312;28;19964;-77
2023/01/23 08:58:28;;;;;;;;;;;1.30;95.40;;;;;;4992868;28;19963;-77
2023/01/23 09:00:54;;;;;;;;;;;1.20;95.00;;;;;;5017912;28;19917;-78
2023/01/23 09:03:19;;;;;;;;;;;1.20;95.00;;;;;;5012654;28;19909;-77
2023/01/23 09:05:45;;;;;;;;;;;1.20;94.30;;;;;;5018334;28;19984;-78
2023/01/23 09:08:11;;;;;;;;;;;1.20;94.70;;;;;;5006008;28;19912;-76
2023/01/23 09:10:36;;;;;;;;;;;1.20;94.10;;;;;;5025451;28;19986;-78
2023/01/23 09:13:02;;;;;;;;;;;1.20;94.50;;;;;;5016107;28;19917;-77
2023/01/23 09:15:28;;;;;;;;;;;1.40;94.80;;;;;;4988637;28;20269;-77
2023/01/23 09:17:53;;;;;;;;;;;1.30;94.00;;;;;;5016264;28;20515;-76
2023/01/23 09:20:19;;;;;;;;;;;1.30;94.00;;;;;;5009587;28;19963;-77
2023/01/23 09:22:44;;;;;;;;;;;1.20;93.90;;;;;;5015829;28;19959;-77
2023/01/23 09:25:11;;;;;;;;;;;1.20;93.50;;;;;;5025442;28;20010;-77
2023/01/23 09:27:36;;;;;;;;;;;1.30;93.60;;;;;;4997953;28;20347;-77
2023/01/23 09:30:02;;;;;;;;;;;1.30;93.60;;;;;;5018398;28;19910;-77
2023/01/23 09:32:28;;;;;;;;;;;1.40;93.90;;;;;;5010514;28;20479;-77
2023/01/23 09:34:54;;;;;;;;;;;1.40;93.70;;;;;;5018919;28;19909;-77
2023/01/23 09:37:19;;;;;;;;;;;1.40;93.70;;;;;;5006740;28;19909;-78
2023/01/23 09:39:45;;;;;;;;;;;1.40;93.90;;;;;;5006714;28;19952;-77
2023/01/23 09:42:19;;;;;;;;;;;1.40;93.70;;;;;;5006966;28;20674;-77
2023/01/23 09:44:51;;;;;;;;;;;1.30;93.40;;;;;;5019006;28;19909;-77
2023/01/23 09:47:37;;;;;;;;;;;1.20;93.10;;;;;;4987341;28;20749;-77
2023/01/23 09:50:07;;;;;;;;;;;1.30;93.90;;;;;;5007306;28;19960;-77
2023/01/23 09:52:34;;;;;;;;;;;1.40;94.10;;;;;;5010308;28;19917;-77
2023/01/23 09:55:12;;;;;;;;;;;1.50;93.80;;;;;;5011216;28;19959;-76
2023/01/23 09:57:49;;;;;;;;;;;1.40;94.10;;;;;;5012450;28;19909;-77
2023/01/23 10:00:18;;;;;;;;;;;1.40;93.80;;;;;;5010992;28;20224;-77
2023/01/23 10:02:45;;;;;;;;;;;1.40;94.10;;;;;;5014662;28;20598;-77
2023/01/23 10:05:12;;;;;;;;;;;1.50;93.90;;;;;;5014070;28;19971;-77
2023/01/23 10:07:38;;;;;;;;;;;1.40;93.90;;;;;;5006322;28;19909;-77
2023/01/23 10:10:13;;;;;;;;;;;1.50;94.30;;;;;;5013243;28;19909;-77
2023/01/23 10:12:46;;;;;;;;;;;1.50;93.70;;;;;;5011064;28;19921;-77
2023/01/23 10:15:11;;;;;;;;;;;1.50;93.60;;;;;;5012189;28;19963;-77
2023/01/23 10:17:46;;;;;;;;;;;1.60;94.00;;;;;;5005107;28;20467;-76
2023/01/23 10:20:15;;;;;;;;;;;1.60;93.50;;;;;;5007559;28;19968;-76
2023/01/23 10:22:41;;;;;;;;;;;1.50;93.60;;;;;;5009420;28;19914;-77
2023/01/23 10:25:09;;;;;;;;;;;1.60;93.90;;;;;;5007749;28;19963;-77
2023/01/23 10:27:40;;;;;;;;;;;1.60;94.00;;;;;;5016639;28;19905;-77
2023/01/23 10:30:25;;;;;;;;;;;1.70;94.70;;;;;;5017097;28;19909;-77
2023/01/23 10:32:50;;;;;;;;;;;1.70;94.10;;;;;;5003644;28;19924;-77
2023/01/23 10:35:18;;;;;;;;;;;1.90;94.20;;;;;;5007273;28;20288;-77
2023/01/23 10:37:49;;;;;;;;;;;1.80;94.20;;;;;;5005099;28;19909;-77
2023/01/23 10:40:16;;;;;;;;;;;1.70;94.20;;;;;;5007569;28;19905;-77
2023/01/23 10:42:42;;;;;;;;;;;1.80;94.10;;;;;;5004843;28;19956;-77
2023/01/23 10:45:18;;;;;;;;;;;1.80;93.90;;;;;;5015332;28;20015;-77
2023/01/23 10:47:45;;;;;;;;;;;1.90;93.70;;;;;;5005908;28;19910;-77
2023/01/23 10:50:11;;;;;;;;;;;1.90;93.40;;;;;;5008425;28;20600;-77
2023/01/23 10:52:38;;;;;;;;;;;1.90;93.50;;;;;;5009442;28;19964;-77
2023/01/23 10:55:05;;;;;;;;;;;2.00;93.30;;;;;;5022205;28;20022;-77
2023/01/23 10:57:42;;;;;;;;;;;1.80;93.40;;;;;;5009305;28;20155;-77
2023/01/23 11:00:26;;;;;;;;;;;1.80;93.70;;;;;;5013454;28;19975;-77
2023/01/23 11:02:51;;;;;;;;;;;1.90;93.60;;;;;;5018025;28;19913;-76
2023/01/23 11:05:46;;;;;;;;;;;1.90;93.90;;;;;;5011809;28;20683;-77
2023/01/23 11:08:22;;;;;;;;;;;1.90;93.20;;;;;;4990838;28;20399;-77
2023/01/23 11:10:47;;;;;;;;;;;1.90;93.40;;;;;;4997272;28;20277;-77
2023/01/23 11:13:33;;;;;;;;;;;2.00;93.30;;;;;;5012400;28;19996;-77
2023/01/23 11:15:59;;;;;;;;;;;2.10;93.60;;;;;;5010793;28;20456;-77
2023/01/23 11:18:32;;;;;;;;;;;2.10;93.30;;;;;;5004760;28;19909;-77
2023/01/23 11:20:58;;;;;;;;;;;2.00;92.80;;;;;;5010393;28;19921;-78
2023/01/23 11:23:24;;;;;;;;;;;2.20;93.20;;;;;;5014065;28;19959;-77
2023/01/23 11:25:50;;;;;;;;;;;2.30;93.10;;;;;;5003469;28;19948;-77
2023/01/23 11:28:29;;;;;;;;;;;2.30;92.70;;;;;;5014123;28;20436;-77
2023/01/23 11:30:55;;;;;;;;;;;2.40;92.10;;;;;;5012678;28;20385;-77
2023/01/23 11:33:23;;;;;;;;;;;2.40;92.10;;;;;;5003720;28;20059;-76
2023/01/23 11:35:59;;;;;;;;;;;2.50;91.60;;;;;;5012334;28;19944;-77
2023/01/23 11:38:26;;;;;;;;;;;2.60;91.90;;;;;;5018825;28;20712;-77
2023/01/23 11:40:52;;;;;;;;;;;2.80;92.00;;;;;;5003903;28;20000;-76
2023/01/23 11:43:17;;;;;;;;;;;3.10;91.20;;;;;;5007927;28;19916;-77
2023/01/23 11:45:43;;;;;;;;;;;3.30;90.90;;;;;;5022980;28;19960;-77
2023/01/23 11:48:25;;;;;;;;;;;3.20;90.90;;;;;;5007444;28;19920;-77
2023/01/23 11:51:05;;;;;;;;;;;3.20;91.10;;;;;;5006714;28;19959;-77
2023/01/23 11:53:54;;;;;;;;;;;3.20;91.00;;;;;;5014432;28;19970;-77
2023/01/23 11:56:20;;;;;;;;;;;3.10;90.60;;;;;;4999917;28;19916;-77
2023/01/23 11:58:48;;;;;;;;;;;3.40;91.00;;;;;;5003355;28;20012;-77
2023/01/23 12:01:40;;;;;;;;;;;3.10;91.30;;;;;;5019655;28;19913;-77
2023/01/23 12:04:13;;;;;;;;;;;2.90;91.50;;;;;;5018336;28;20266;-77
2023/01/23 12:07:02;;;;;;;;;;;2.80;92.00;;;;;;5003362;28;19909;-77
2023/01/23 12:09:40;;;;;;;;;;;2.70;91.70;;;;;;4999576;28;19948;-77
2023/01/23 12:12:09;;;;;;;;;;;2.70;92.20;;;;;;5010609;28;19918;-77
2023/01/23 12:14:35;;;;;;;;;;;2.50;92.40;;;;;;5018323;28;19905;-77
2023/01/23 12:17:11;;;;;;;;;;;2.40;92.70;;;;;;5008861;28;19920;-77
2023/01/23 12:19:48;;;;;;;;;;;2.50;92.70;;;;;;5009957;28;19957;-77
2023/01/23 12:22:17;;;;;;;;;;;2.40;92.30;;;;;;5009884;28;19956;-77
2023/01/23 12:24:45;;;;;;;;;;;2.40;92.60;;;;;;5003754;28;19960;-77
2023/01/23 12:27:22;;;;;;;;;;;2.40;92.90;;;;;;5009778;28;20287;-76
2023/01/23 12:30:06;;;;;;;;;;;2.40;92.20;;;;;;5011329;28;20494;-77
2023/01/23 12:32:47;;;;;;;;;;;2.40;92.60;;;;;;5011782;28;19917;-76
2023/01/23 12:35:31;;;;;;;;;;;2.40;92.40;;;;;;5003363;28;19909;-77
2023/01/23 12:38:15;;;;;;;;;;;2.30;92.50;;;;;;5004032;28;19905;-76
2023/01/23 12:40:48;;;;;;;;;;;2.40;93.00;;;;;;5011564;28;20473;-76
2023/01/23 12:43:17;;;;;;;;;;;2.50;92.40;;;;;;5007890;28;19940;-76
2023/01/23 12:45:56;;;;;;;;;;;2.60;92.70;;;;;;5003010;28;19979;-77
2023/01/23 12:48:27;;;;;;;;;;;2.40;92.80;;;;;;5003003;28;20008;-77
2023/01/23 12:51:02;;;;;;;;;;;2.20;92.90;;;;;;5014943;28;19963;-77
2023/01/23 12:53:31;;;;;;;;;;;2.30;93.40;;;;;;5007800;28;19948;-76
2023/01/23 12:56:02;;;;;;;;;;;2.40;93.60;;;;;;5010116;28;19910;-77
2023/01/23 12:58:30;;;;;;;;;;;2.40;93.40;;;;;;5006910;28;19913;-77
2023/01/23 13:01:00;;;;;;;;;;;2.20;92.30;;;;;;5014343;28;19921;-77
2023/01/23 13:03:28;;;;;;;;;;;2.30;92.60;;;;;;5015832;28;19952;-78
2023/01/23 13:06:00;;;;;;;;;;;2.30;93.10;;;;;;5017612;28;19992;-77
2023/01/23 13:08:28;;;;;;;;;;;2.40;93.60;;;;;;5007829;28;19913;-77
2023/01/23 13:13:39;;;;;;;;;;;2.30;93.00;;;;;;5004230;28;19924;-77
2023/01/23 13:16:17;;;;;;;;;;;2.40;93.90;;;;;;4996636;28;19998;-77
2023/01/23 13:27:32;;;;;;;;;;;2.50;93.30;;;;;;5021569;28;19916;-77
2023/01/23 13:29:57;;;;;;;;;;;2.50;93.30;;;;;;5014713;28;19913;-77
2023/01/23 13:32:26;;;;;;;;;;;2.60;93.50;;;;;;5015466;28;19917;-77
2023/01/23 13:34:52;;;;;;;;;;;2.50;93.40;;;;;;5024542;28;19916;-77
2023/01/23 13:37:32;;;;;;;;;;;2.60;93.30;;;;;;5007518;28;19917;-77
2023/01/23 13:40:17;;;;;;;;;;;2.50;93.40;;;;;;5017176;28;19916;-76
2023/01/23 13:42:42;;;;;;;;;;;2.50;93.20;;;;;;5018102;28;19909;-76
2023/01/23 13:45:14;;;;;;;;;;;2.40;92.80;;;;;;5009908;28;19909;-77
2023/01/23 13:50:31;;;;;;;;;;;2.40;93.60;;;;;;5008393;28;19975;-77
2023/01/23 13:58:34;;;;;;;;;;;2.40;93.10;;;;;;5009144;28;20442;-77
2023/01/23 14:06:43;;;;;;;;;;;2.50;93.20;;;;;;5005228;28;20044;-77
2023/01/23 14:09:21;;;;;;;;;;;2.50;93.30;;;;;;5018628;28;20393;-76
2023/01/23 14:11:48;;;;;;;;;;;2.30;93.80;;;;;;5017326;28;19924;-77
2023/01/23 14:16:58;;;;;;;;;;;2.50;93.20;;;;;;5016983;28;20486;-77
2023/01/23 14:19:24;;;;;;;;;;;2.40;93.00;;;;;;5007512;28;19913;-77
2023/01/23 14:21:53;;;;;;;;;;;2.50;92.90;;;;;;5020132;28;19952;-77
2023/01/23 14:24:21;;;;;;;;;;;2.50;93.30;;;;;;5008815;28;20603;-77
2023/01/23 14:26:51;;;;;;;;;;;2.40;93.40;;;;;;5011470;28;19913;-77
2023/01/23 14:29:23;;;;;;;;;;;2.30;93.20;;;;;;5017858;28;20003;-77
2023/01/23 14:31:49;;;;;;;;;;;2.20;93.00;;;;;;5010337;28;20027;-77
2023/01/23 14:34:22;;;;;;;;;;;2.10;93.70;;;;;;5015920;28;20434;-78
2023/01/23 14:36:51;;;;;;;;;;;2.20;93.90;;;;;;5013390;28;19917;-77
2023/01/23 14:39:21;;;;;;;;;;;2.10;93.70;;;;;;5009013;28;19913;-77
2023/01/23 14:41:48;;;;;;;;;;;2.20;93.60;;;;;;5006174;28;19916;-77
2023/01/23 14:44:22;;;;;;;;;;;2.10;93.60;;;;;;5012758;28;20059;-77
2023/01/23 14:46:55;;;;;;;;;;;2.00;93.40;;;;;;5006786;28;19913;-77
2023/01/23 14:49:26;;;;;;;;;;;2.10;93.70;;;;;;5006103;28;19956;-77
2023/01/23 14:51:53;;;;;;;;;;;2.10;93.50;;;;;;5009769;28;19959;-77
2023/01/23 14:54:18;;;;;;;;;;;2.10;93.80;;;;;;5008358;28;19909;-77
2023/01/23 14:56:45;;;;;;;;;;;2.10;93.50;;;;;;5003681;28;19987;-78
2023/01/23 14:59:28;;;;;;;;;;;2.10;93.80;;;;;;5007777;28;19921;-77
2023/01/23 15:01:55;;;;;;;;;;;2.10;93.10;;;;;;5008726;28;19964;-77
2023/01/23 15:04:22;;;;;;;;;;;2.00;93.60;;;;;;5007765;28;20401;-78
2023/01/23 15:06:52;;;;;;;;;;;2.00;93.20;;;;;;4999144;28;19915;-77
2023/01/23 15:09:24;;;;;;;;;;;1.90;93.60;;;;;;5005497;28;19909;-77